sensor_id;sensor_type;location;lat;lon;timestamp;pressure;altitude;pressure_sealevel;temperature;humidity
35918;BME280;22011;59.912;30.300;2022-09-28T00:01:12;101135.06;;;10.69;70.54
35918;BME280;22011;59.912;30.300;2022-09-28T00:03:40;101133.56;;;10.67;71.04
35918;BME280;22011;59.912;30.300;2022-09-28T00:06:09;101131.56;;;10.69;70.63
35918;BME280;22011;59.912;30.300;2022-09-28T00:08:38;101130.06;;;10.66;70.69
35918;BME280;22011;59.912;30.300;2022-09-28T00:11:09;101137.69;;;10.61;70.96
35918;BME280;22011;59.912;30.300;2022-09-28T00:13:38;101131.50;;;10.61;71.12
35918;BME280;22011;59.912;30.300;2022-09-28T00:16:07;101141.34;;;10.60;70.83
35918;BME280;22011;59.912;30.300;2022-09-28T00:18:35;101125.66;;;10.57;70.88
35918;BME280;22011;59.912;30.300;2022-09-28T00:21:04;101124.97;;;10.55;71.29
35918;BME280;22011;59.912;30.300;2022-09-28T00:23:32;101127.66;;;10.55;71.26
35918;BME280;22011;59.912;30.300;2022-09-28T00:26:01;101120.66;;;10.54;71.17
35918;BME280;22011;59.912;30.300;2022-09-28T00:28:31;101112.50;;;10.56;71.23
35918;BME280;22011;59.912;30.300;2022-09-28T00:30:58;101113.97;;;10.50;70.92
35918;BME280;22011;59.912;30.300;2022-09-28T00:33:26;101120.28;;;10.49;70.93
35918;BME280;22011;59.912;30.300;2022-09-28T00:35:55;101120.59;;;10.46;71.22
35918;BME280;22011;59.912;30.300;2022-09-28T00:38:25;101117.09;;;10.45;71.90
35918;BME280;22011;59.912;30.300;2022-09-28T00:40:53;101120.56;;;10.38;71.60
35918;BME280;22011;59.912;30.300;2022-09-28T00:43:22;101116.38;;;10.35;71.88
35918;BME280;22011;59.912;30.300;2022-09-28T00:45:55;101117.25;;;10.44;72.31
35918;BME280;22011;59.912;30.300;2022-09-28T00:48:27;101114.25;;;10.39;71.81
35918;BME280;22011;59.912;30.300;2022-09-28T00:50:56;101108.38;;;10.35;71.68
35918;BME280;22011;59.912;30.300;2022-09-28T00:53:26;101114.06;;;10.66;71.69
35918;BME280;22011;59.912;30.300;2022-09-28T00:55:59;101111.72;;;10.37;71.51
35918;BME280;22011;59.912;30.300;2022-09-28T00:58:31;101112.88;;;10.35;72.00
35918;BME280;22011;59.912;30.300;2022-09-28T01:01:02;101115.69;;;10.33;72.03
35918;BME280;22011;59.912;30.300;2022-09-28T01:03:31;101105.34;;;10.30;71.84
35918;BME280;22011;59.912;30.300;2022-09-28T01:06:01;101111.16;;;10.26;72.08
35918;BME280;22011;59.912;30.300;2022-09-28T01:08:31;101109.47;;;10.25;71.99
35918;BME280;22011;59.912;30.300;2022-09-28T01:11:00;101112.44;;;10.22;71.90
35918;BME280;22011;59.912;30.300;2022-09-28T01:13:29;101114.69;;;10.16;72.07
35918;BME280;22011;59.912;30.300;2022-09-28T01:16:06;101116.78;;;10.23;73.01
35918;BME280;22011;59.912;30.300;2022-09-28T01:18:44;101109.00;;;10.11;72.52
35918;BME280;22011;59.912;30.300;2022-09-28T01:21:17;101119.13;;;10.08;72.67
35918;BME280;22011;59.912;30.300;2022-09-28T01:27:09;101114.69;;;10.16;72.77
35918;BME280;22011;59.912;30.300;2022-09-28T01:29:50;101110.97;;;10.09;72.73
35918;BME280;22011;59.912;30.300;2022-09-28T01:32:25;101110.75;;;10.03;72.67
35918;BME280;22011;59.912;30.300;2022-09-28T01:35:01;101109.22;;;10.00;72.38
35918;BME280;22011;59.912;30.300;2022-09-28T01:37:35;101104.28;;;10.05;72.45
35918;BME280;22011;59.912;30.300;2022-09-28T01:40:06;101104.50;;;9.94;72.18
35918;BME280;22011;59.912;30.300;2022-09-28T01:42:38;101098.22;;;9.95;72.89
35918;BME280;22011;59.912;30.300;2022-09-28T01:45:14;101107.09;;;10.04;73.08
35918;BME280;22011;59.912;30.300;2022-09-28T01:47:44;101109.38;;;9.99;72.05
35918;BME280;22011;59.912;30.300;2022-09-28T01:50:16;101103.91;;;10.00;72.31
35918;BME280;22011;59.912;30.300;2022-09-28T01:52:49;101107.25;;;10.02;72.25
35918;BME280;22011;59.912;30.300;2022-09-28T01:55:24;101107.09;;;10.04;72.67
35918;BME280;22011;59.912;30.300;2022-09-28T01:57:59;101106.41;;;10.02;72.59
35918;BME280;22011;59.912;30.300;2022-09-28T02:00:28;101097.38;;;9.95;71.87
35918;BME280;22011;59.912;30.300;2022-09-28T02:03:00;101098.59;;;10.00;72.10
35918;BME280;22011;59.912;30.300;2022-09-28T02:05:38;101096.22;;;9.97;71.99
35918;BME280;22011;59.912;30.300;2022-09-28T02:08:08;101088.78;;;10.01;72.17
35918;BME280;22011;59.912;30.300;2022-09-28T02:10:41;101095.91;;;10.00;72.05
35918;BME280;22011;59.912;30.300;2022-09-28T02:13:15;101093.94;;;10.02;72.09
35918;BME280;22011;59.912;30.300;2022-09-28T02:15:50;101089.59;;;10.01;72.22
35918;BME280;22011;59.912;30.300;2022-09-28T02:18:17;101091.50;;;9.91;71.71
35918;BME280;22011;59.912;30.300;2022-09-28T02:20:51;101095.25;;;9.98;72.33
35918;BME280;22011;59.912;30.300;2022-09-28T02:23:25;101098.66;;;9.91;72.04
35918;BME280;22011;59.912;30.300;2022-09-28T02:26:00;101087.19;;;9.90;72.39
35918;BME280;22011;59.912;30.300;2022-09-28T02:28:31;101096.31;;;9.88;72.15
35918;BME280;22011;59.912;30.300;2022-09-28T02:30:59;101097.28;;;9.87;72.01
35918;BME280;22011;59.912;30.300;2022-09-28T02:33:30;101098.50;;;9.92;72.08
35918;BME280;22011;59.912;30.300;2022-09-28T02:36:00;101093.63;;;9.88;71.30
35918;BME280;22011;59.912;30.300;2022-09-28T02:38:32;101090.16;;;9.87;71.78
35918;BME280;22011;59.912;30.300;2022-09-28T02:41:03;101093.63;;;9.88;72.02
35918;BME280;22011;59.912;30.300;2022-09-28T02:43:42;101093.88;;;9.94;72.22
35918;BME280;22011;59.912;30.300;2022-09-28T02:46:19;101099.81;;;9.88;72.02
35918;BME280;22011;59.912;30.300;2022-09-28T02:49:02;101099.19;;;9.94;72.04
35918;BME280;22011;59.912;30.300;2022-09-28T02:51:39;101098.44;;;9.84;72.09
35918;BME280;22011;59.912;30.300;2022-09-28T02:54:31;101093.34;;;9.91;72.32
35918;BME280;22011;59.912;30.300;2022-09-28T02:57:22;101095.84;;;9.92;72.59
35918;BME280;22011;59.912;30.300;2022-09-28T03:00:02;101087.78;;;9.84;72.54
35918;BME280;22011;59.912;30.300;2022-09-28T03:02:36;101092.66;;;9.71;72.65
35918;BME280;22011;59.912;30.300;2022-09-28T03:05:14;101089.22;;;9.78;73.33
35918;BME280;22011;59.912;30.300;2022-09-28T03:07:46;101084.59;;;9.98;72.82
35918;BME280;22011;59.912;30.300;2022-09-28T03:10:20;101082.00;;;9.71;73.04
35918;BME280;22011;59.912;30.300;2022-09-28T03:12:52;101086.09;;;9.65;73.60
35918;BME280;22011;59.912;30.300;2022-09-28T03:15:23;101085.97;;;9.67;73.75
35918;BME280;22011;59.912;30.300;2022-09-28T03:17:53;101083.22;;;9.59;73.46
35918;BME280;22011;59.912;30.300;2022-09-28T03:20:20;101081.69;;;9.56;73.98
35918;BME280;22011;59.912;30.300;2022-09-28T03:22:48;101076.22;;;9.58;74.13
35918;BME280;22011;59.912;30.300;2022-09-28T03:25:16;101081.31;;;9.51;74.37
35918;BME280;22011;59.912;30.300;2022-09-28T03:27:44;101077.50;;;9.54;74.70
35918;BME280;22011;59.912;30.300;2022-09-28T03:30:15;101077.91;;;9.59;75.10
35918;BME280;22011;59.912;30.300;2022-09-28T03:32:46;101078.59;;;9.61;75.19
35918;BME280;22011;59.912;30.300;2022-09-28T03:35:15;101077.59;;;9.62;74.57
35918;BME280;22011;59.912;30.300;2022-09-28T03:37:42;101070.75;;;9.59;74.69
35918;BME280;22011;59.912;30.300;2022-09-28T03:40:10;101080.16;;;9.54;75.19
35918;BME280;22011;59.912;30.300;2022-09-28T03:42:37;101072.88;;;9.56;75.81
35918;BME280;22011;59.912;30.300;2022-09-28T03:45:06;101076.38;;;9.56;75.79
35918;BME280;22011;59.912;30.300;2022-09-28T03:47:34;101074.25;;;9.60;75.44
35918;BME280;22011;59.912;30.300;2022-09-28T03:50:03;101068.47;;;9.64;75.29
35918;BME280;22011;59.912;30.300;2022-09-28T03:52:32;101067.25;;;9.59;75.57
35918;BME280;22011;59.912;30.300;2022-09-28T03:54:59;101059.13;;;9.60;75.27
35918;BME280;22011;59.912;30.300;2022-09-28T03:57:27;101060.50;;;9.64;75.69
35918;BME280;22011;59.912;30.300;2022-09-28T03:59:54;101052.06;;;9.69;75.49
35918;BME280;22011;59.912;30.300;2022-09-28T04:02:22;101057.06;;;9.72;74.99
35918;BME280;22011;59.912;30.300;2022-09-28T04:04:49;101057.59;;;9.75;75.25
35918;BME280;22011;59.912;30.300;2022-09-28T04:07:18;101057.00;;;9.81;75.62
35918;BME280;22011;59.912;30.300;2022-09-28T04:09:46;101049.16;;;9.80;75.04
35918;BME280;22011;59.912;30.300;2022-09-28T04:12:13;101049.16;;;9.80;75.37
35918;BME280;22011;59.912;30.300;2022-09-28T04:14:41;101048.03;;;9.82;75.33
35918;BME280;22011;59.912;30.300;2022-09-28T04:17:08;101045.22;;;9.84;75.66
35918;BME280;22011;59.912;30.300;2022-09-28T04:19:36;101041.25;;;9.88;75.84
35918;BME280;22011;59.912;30.300;2022-09-28T04:22:27;101041.00;;;9.99;76.00
35918;BME280;22011;59.912;30.300;2022-09-28T04:24:54;101032.19;;;9.99;75.28
35918;BME280;22011;59.912;30.300;2022-09-28T04:27:22;101031.03;;;10.01;75.14
35918;BME280;22011;59.912;30.300;2022-09-28T04:30:08;101033.25;;;10.06;75.41
35918;BME280;22011;59.912;30.300;2022-09-28T04:32:36;101030.44;;;10.07;75.11
35918;BME280;22011;59.912;30.300;2022-09-28T04:35:05;101031.25;;;10.08;75.40
35918;BME280;22011;59.912;30.300;2022-09-28T04:37:34;101026.47;;;10.11;75.25
35918;BME280;22011;59.912;30.300;2022-09-28T04:40:03;101027.75;;;10.07;75.49
35918;BME280;22011;59.912;30.300;2022-09-28T04:42:31;101018.31;;;10.13;75.18
35918;BME280;22011;59.912;30.300;2022-09-28T04:44:59;101016.81;;;10.10;75.26
35918;BME280;22011;59.912;30.300;2022-09-28T04:47:28;101016.81;;;10.10;75.39
35918;BME280;22011;59.912;30.300;2022-09-28T04:50:19;101015.97;;;10.10;75.01
35918;BME280;22011;59.912;30.300;2022-09-28T04:53:06;101017.31;;;10.14;75.17
35918;BME280;22011;59.912;30.300;2022-09-28T04:55:34;101007.97;;;10.10;74.92
35918;BME280;22011;59.912;30.300;2022-09-28T04:58:03;101014.81;;;10.12;74.74
35918;BME280;22011;59.912;30.300;2022-09-28T05:00:31;101011.84;;;10.15;74.29
35918;BME280;22011;59.912;30.300;2022-09-28T05:03:18;101021.06;;;10.21;74.54
35918;BME280;22011;59.912;30.300;2022-09-28T05:06:15;101012.59;;;10.26;74.30
35918;BME280;22011;59.912;30.300;2022-09-28T05:08:46;101011.47;;;10.28;74.47
35918;BME280;22011;59.912;30.300;2022-09-28T05:11:14;101013.28;;;10.28;74.22
35918;BME280;22011;59.912;30.300;2022-09-28T05:13:44;101007.97;;;10.28;74.52
35918;BME280;22011;59.912;30.300;2022-09-28T05:16:15;101004.78;;;10.24;74.22
35918;BME280;22011;59.912;30.300;2022-09-28T05:19:01;101005.31;;;10.28;74.63
35918;BME280;22011;59.912;30.300;2022-09-28T05:21:29;101002.53;;;10.37;74.35
35918;BME280;22011;59.912;30.300;2022-09-28T05:23:58;101005.09;;;10.55;74.34
35918;BME280;22011;59.912;30.300;2022-09-28T05:26:26;101004.59;;;10.60;74.32
35918;BME280;22011;59.912;30.300;2022-09-28T05:28:53;100998.53;;;10.75;73.82
35918;BME280;22011;59.912;30.300;2022-09-28T05:31:39;100996.53;;;10.77;73.82
35918;BME280;22011;59.912;30.300;2022-09-28T05:34:15;100999.50;;;10.74;73.62
35918;BME280;22011;59.912;30.300;2022-09-28T05:36:43;100989.69;;;10.75;73.24
35918;BME280;22011;59.912;30.300;2022-09-28T05:39:12;100997.19;;;10.79;73.78
35918;BME280;22011;59.912;30.300;2022-09-28T05:41:40;101000.19;;;10.76;73.30
35918;BME280;22011;59.912;30.300;2022-09-28T05:44:07;100996.53;;;10.77;72.85
35918;BME280;22011;59.912;30.300;2022-09-28T05:46:35;100992.50;;;10.73;73.34
35918;BME280;22011;59.912;30.300;2022-09-28T05:49:03;100999.50;;;10.74;73.59
35918;BME280;22011;59.912;30.300;2022-09-28T05:51:30;101001.84;;;10.77;73.47
35918;BME280;22011;59.912;30.300;2022-09-28T05:53:58;100995.03;;;10.75;73.67
35918;BME280;22011;59.912;30.300;2022-09-28T05:56:30;100999.34;;;10.76;74.56
35918;BME280;22011;59.912;30.300;2022-09-28T05:58:58;100987.81;;;10.67;73.65
35918;BME280;22011;59.912;30.300;2022-09-28T06:01:28;100999.78;;;10.63;73.43
35918;BME280;22011;59.912;30.300;2022-09-28T06:03:58;101003.13;;;10.65;73.49
35918;BME280;22011;59.912;30.300;2022-09-28T06:06:25;100999.13;;;10.61;73.10
35918;BME280;22011;59.912;30.300;2022-09-28T06:08:53;100994.63;;;10.62;73.46
35918;BME280;22011;59.912;30.300;2022-09-28T06:11:34;100993.44;;;10.98;73.15
35918;BME280;22011;59.912;30.300;2022-09-28T06:14:08;100994.81;;;10.68;72.97
35918;BME280;22011;59.912;30.300;2022-09-28T06:16:40;100999.16;;;10.69;73.30
35918;BME280;22011;59.912;30.300;2022-09-28T06:19:10;100992.69;;;10.72;73.33
35918;BME280;22011;59.912;30.300;2022-09-28T06:21:56;100986.19;;;10.74;73.17
35918;BME280;22011;59.912;30.300;2022-09-28T06:24:24;100978.72;;;10.78;73.11
35918;BME280;22011;59.912;30.300;2022-09-28T06:26:53;100983.22;;;10.86;73.31
35918;BME280;22011;59.912;30.300;2022-09-28T06:29:21;100988.56;;;10.86;73.33
35918;BME280;22011;59.912;30.300;2022-09-28T06:31:49;100986.22;;;10.82;72.93
35918;BME280;22011;59.912;30.300;2022-09-28T06:34:17;100981.56;;;10.85;73.20
35918;BME280;22011;59.912;30.300;2022-09-28T06:36:46;100983.09;;;10.95;72.90
35918;BME280;22011;59.912;30.300;2022-09-28T06:39:15;100982.13;;;11.04;72.88
35918;BME280;22011;59.912;30.300;2022-09-28T06:41:43;100986.47;;;11.13;72.05
35918;BME280;22011;59.912;30.300;2022-09-28T06:44:15;100975.81;;;11.22;72.04
35918;BME280;22011;59.912;30.300;2022-09-28T06:47:02;100974.66;;;11.16;71.93
35918;BME280;22011;59.912;30.300;2022-09-28T06:49:54;100968.66;;;11.14;72.01
35918;BME280;22011;59.912;30.300;2022-09-28T06:52:40;100962.31;;;11.15;71.84
35918;BME280;22011;59.912;30.300;2022-09-28T06:55:28;100967.66;;;11.15;71.88
35918;BME280;22011;59.912;30.300;2022-09-28T06:57:57;100959.47;;;11.17;71.60
35918;BME280;22011;59.912;30.300;2022-09-28T07:00:27;100969.81;;;11.20;72.01
35918;BME280;22011;59.912;30.300;2022-09-28T07:02:56;100966.16;;;11.21;72.05
35918;BME280;22011;59.912;30.300;2022-09-28T07:05:54;100963.31;;;11.22;71.31
35918;BME280;22011;59.912;30.300;2022-09-28T07:08:37;100953.31;;;11.24;71.39
35918;BME280;22011;59.912;30.300;2022-09-28T07:11:24;100947.34;;;11.30;71.42
35918;BME280;22011;59.912;30.300;2022-09-28T07:14:10;100940.00;;;11.40;71.07
35918;BME280;22011;59.912;30.300;2022-09-28T07:16:39;100945.66;;;11.54;71.01
35918;BME280;22011;59.912;30.300;2022-09-28T07:19:07;100939.97;;;11.65;70.55
35918;BME280;22011;59.912;30.300;2022-09-28T07:21:35;100929.97;;;11.75;69.63
35918;BME280;22011;59.912;30.300;2022-09-28T07:24:04;100933.47;;;11.84;69.76
35918;BME280;22011;59.912;30.300;2022-09-28T07:26:50;100929.16;;;11.83;69.59
35918;BME280;22011;59.912;30.300;2022-09-28T07:29:32;100932.00;;;11.81;69.19
35918;BME280;22011;59.912;30.300;2022-09-28T07:32:18;100924.81;;;11.90;69.29
35918;BME280;22011;59.912;30.300;2022-09-28T07:35:13;100928.47;;;11.89;69.07
35918;BME280;22011;59.912;30.300;2022-09-28T07:37:56;100923.94;;;12.05;69.03
35918;BME280;22011;59.912;30.300;2022-09-28T07:40:25;100917.28;;;11.93;68.60
35918;BME280;22011;59.912;30.300;2022-09-28T07:43:10;100912.28;;;11.90;68.98
35918;BME280;22011;59.912;30.300;2022-09-28T07:45:41;100920.28;;;11.90;68.73
35918;BME280;22011;59.912;30.300;2022-09-28T07:48:10;100917.59;;;11.98;69.38
35918;BME280;22011;59.912;30.300;2022-09-28T07:50:50;100906.94;;;11.98;69.21
35918;BME280;22011;59.912;30.300;2022-09-28T07:53:41;100909.59;;;11.98;69.14
35918;BME280;22011;59.912;30.300;2022-09-28T07:56:18;100908.25;;;12.02;69.09
35918;BME280;22011;59.912;30.300;2022-09-28T07:59:01;100907.28;;;11.95;69.20
35918;BME280;22011;59.912;30.300;2022-09-28T08:02:01;100901.25;;;11.93;69.19
35918;BME280;22011;59.912;30.300;2022-09-28T08:04:30;100902.59;;;11.89;69.82
35918;BME280;22011;59.912;30.300;2022-09-28T08:06:57;100894.63;;;11.81;69.95
35918;BME280;22011;59.912;30.300;2022-09-28T08:09:26;100902.63;;;11.81;70.40
35918;BME280;22011;59.912;30.300;2022-09-28T08:12:12;100904.78;;;11.77;70.03
35918;BME280;22011;59.912;30.300;2022-09-28T08:14:40;100896.44;;;11.81;70.29
35918;BME280;22011;59.912;30.300;2022-09-28T08:17:30;100898.94;;;11.74;70.37
35918;BME280;22011;59.912;30.300;2022-09-28T08:20:01;100900.28;;;11.78;71.06
35918;BME280;22011;59.912;30.300;2022-09-28T08:22:46;100901.44;;;11.67;70.87
35918;BME280;22011;59.912;30.300;2022-09-28T08:25:13;100898.28;;;11.64;71.12
35918;BME280;22011;59.912;30.300;2022-09-28T08:27:41;100903.94;;;11.61;70.78
35918;BME280;22011;59.912;30.300;2022-09-28T08:30:09;100908.28;;;11.62;71.07
35918;BME280;22011;59.912;30.300;2022-09-28T08:32:50;100907.13;;;11.64;70.59
35918;BME280;22011;59.912;30.300;2022-09-28T08:35:45;100910.28;;;11.68;70.70
35918;BME280;22011;59.912;30.300;2022-09-28T08:38:25;100907.94;;;11.65;70.32
35918;BME280;22011;59.912;30.300;2022-09-28T08:41:17;100902.59;;;11.73;70.43
35918;BME280;22011;59.912;30.300;2022-09-28T08:44:16;100904.94;;;11.68;69.83
35918;BME280;22011;59.912;30.300;2022-09-28T08:47:17;100898.94;;;11.74;69.66
35918;BME280;22011;59.912;30.300;2022-09-28T08:50:27;100900.97;;;11.80;69.53
35918;BME280;22011;59.912;30.300;2022-09-28T08:53:07;100902.25;;;11.92;69.26
35918;BME280;22011;59.912;30.300;2022-09-28T08:56:01;100886.25;;;11.92;68.84
35918;BME280;22011;59.912;30.300;2022-09-28T08:58:33;100885.25;;;11.93;68.70
35918;BME280;22011;59.912;30.300;2022-09-28T09:01:04;100887.56;;;11.96;67.92
35918;BME280;22011;59.912;30.300;2022-09-28T09:03:36;100888.41;;;11.97;68.01
35918;BME280;22011;59.912;30.300;2022-09-28T09:06:33;100884.03;;;12.04;68.03
35918;BME280;22011;59.912;30.300;2022-09-28T09:09:38;100883.50;;;12.17;68.33
35918;BME280;22011;59.912;30.300;2022-09-28T09:12:14;100889.56;;;12.02;68.48
35918;BME280;22011;59.912;30.300;2022-09-28T09:15:11;100885.00;;;12.19;69.31
35918;BME280;22011;59.912;30.300;2022-09-28T09:17:48;100880.50;;;12.11;68.76
35918;BME280;22011;59.912;30.300;2022-09-28T09:20:39;100883.00;;;12.13;68.44
35918;BME280;22011;59.912;30.300;2022-09-28T09:23:18;100883.19;;;12.11;68.28
35918;BME280;22011;59.912;30.300;2022-09-28T09:25:49;100878.47;;;12.22;68.36
35918;BME280;22011;59.912;30.300;2022-09-28T09:28:42;100874.56;;;12.40;67.84
35918;BME280;22011;59.912;30.300;2022-09-28T09:31:26;100875.38;;;12.41;67.35
35918;BME280;22011;59.912;30.300;2022-09-28T09:34:16;100869.09;;;12.57;66.16
35918;BME280;22011;59.912;30.300;2022-09-28T09:36:59;100865.72;;;12.63;66.23
35918;BME280;22011;59.912;30.300;2022-09-28T09:39:57;100858.31;;;12.73;65.47
35918;BME280;22011;59.912;30.300;2022-09-28T09:42:55;100850.53;;;12.86;64.89
35918;BME280;22011;59.912;30.300;2022-09-28T09:46:01;100858.34;;;12.96;64.99
35918;BME280;22011;59.912;30.300;2022-09-28T09:48:50;100858.38;;;12.88;64.18
35918;BME280;22011;59.912;30.300;2022-09-28T09:51:25;100858.38;;;12.88;64.45
35918;BME280;22011;59.912;30.300;2022-09-28T09:54:00;100860.47;;;12.77;64.67
35918;BME280;22011;59.912;30.300;2022-09-28T09:56:33;100861.66;;;12.75;64.21
35918;BME280;22011;59.912;30.300;2022-09-28T09:59:22;100860.88;;;12.66;63.24
35918;BME280;22011;59.912;30.300;2022-09-28T10:02:17;100864.19;;;12.68;63.15
35918;BME280;22011;59.912;30.300;2022-09-28T10:04:54;100862.56;;;12.59;62.57
35918;BME280;22011;59.912;30.300;2022-09-28T10:07:36;100862.22;;;12.62;62.36
35918;BME280;22011;59.912;30.300;2022-09-28T10:10:11;100860.50;;;12.69;62.32
35918;BME280;22011;59.912;30.300;2022-09-28T10:12:48;100855.34;;;12.68;61.23
35918;BME280;22011;59.912;30.300;2022-09-28T10:15:23;100860.47;;;12.77;62.24
35918;BME280;22011;59.912;30.300;2022-09-28T10:18:13;100861.66;;;12.75;61.14
35918;BME280;22011;59.912;30.300;2022-09-28T10:21:00;100853.44;;;12.76;61.52
35918;BME280;22011;59.912;30.300;2022-09-28T10:24:00;100852.75;;;12.83;61.43
35918;BME280;22011;59.912;30.300;2022-09-28T10:26:33;100850.19;;;12.89;61.15
35918;BME280;22011;59.912;30.300;2022-09-28T10:29:04;100853.81;;;12.96;60.71
35918;BME280;22011;59.912;30.300;2022-09-28T10:31:42;100846.56;;;13.05;61.08
35918;BME280;22011;59.912;30.300;2022-09-28T10:34:23;100846.75;;;13.03;61.28
35918;BME280;22011;59.912;30.300;2022-09-28T10:36:53;100844.53;;;13.07;61.15
35918;BME280;22011;59.912;30.300;2022-09-28T10:39:30;100844.34;;;13.08;61.09
35918;BME280;22011;59.912;30.300;2022-09-28T10:42:00;100845.66;;;12.90;61.29
35918;BME280;22011;59.912;30.300;2022-09-28T10:44:31;100837.00;;;12.88;61.41
35918;BME280;22011;59.912;30.300;2022-09-28T10:47:16;100842.81;;;12.91;62.13
35918;BME280;22011;59.912;30.300;2022-09-28T10:49:47;100836.03;;;12.81;62.44
35918;BME280;22011;59.912;30.300;2022-09-28T10:52:37;100833.25;;;12.97;62.35
35918;BME280;22011;59.912;30.300;2022-09-28T10:55:28;100830.34;;;13.06;62.40
35918;BME280;22011;59.912;30.300;2022-09-28T10:57:58;100827.31;;;12.87;61.47
35918;BME280;22011;59.912;30.300;2022-09-28T11:00:38;100823.19;;;12.99;61.74
35918;BME280;22011;59.912;30.300;2022-09-28T11:03:21;100832.00;;;13.07;61.38
35918;BME280;22011;59.912;30.300;2022-09-28T11:05:54;100826.00;;;13.05;61.48
35918;BME280;22011;59.912;30.300;2022-09-28T11:08:27;100825.88;;;12.99;61.73
35918;BME280;22011;59.912;30.300;2022-09-28T11:11:06;100820.06;;;12.95;62.02
35918;BME280;22011;59.912;30.300;2022-09-28T11:13:43;100830.22;;;13.00;62.65
35918;BME280;22011;59.912;30.300;2022-09-28T11:16:33;100827.84;;;13.05;62.73
35918;BME280;22011;59.912;30.300;2022-09-28T11:19:05;100826.47;;;12.86;62.72
35918;BME280;22011;59.912;30.300;2022-09-28T11:21:53;100819.69;;;12.75;62.19
35918;BME280;22011;59.912;30.300;2022-09-28T11:24:28;100814.72;;;12.72;62.78
35918;BME280;22011;59.912;30.300;2022-09-28T11:26:59;100814.06;;;12.70;62.63
35918;BME280;22011;59.912;30.300;2022-09-28T11:29:34;100810.78;;;12.83;63.13
35918;BME280;22011;59.912;30.300;2022-09-28T11:32:22;100809.19;;;12.74;63.15
35918;BME280;22011;59.912;30.300;2022-09-28T11:35:15;100809.31;;;12.81;63.57
35918;BME280;22011;59.912;30.300;2022-09-28T11:38:02;100812.94;;;12.88;63.80
35918;BME280;22011;59.912;30.300;2022-09-28T11:41:02;100812.44;;;12.84;64.19
35918;BME280;22011;59.912;30.300;2022-09-28T11:43:48;100808.81;;;12.77;66.24
35918;BME280;22011;59.912;30.300;2022-09-28T11:46:26;100805.31;;;12.54;68.03
35918;BME280;22011;59.912;30.300;2022-09-28T11:49:12;100806.56;;;12.43;70.45
35918;BME280;22011;59.912;30.300;2022-09-28T11:51:47;100802.25;;;12.42;70.07
35918;BME280;22011;59.912;30.300;2022-09-28T11:54:23;100805.22;;;12.47;71.30
35918;BME280;22011;59.912;30.300;2022-09-28T11:56:56;100801.75;;;12.38;70.79
35918;BME280;22011;59.912;30.300;2022-09-28T11:59:29;100798.06;;;12.39;69.49
35918;BME280;22011;59.912;30.300;2022-09-28T12:02:02;100803.38;;;12.48;69.11
35918;BME280;22011;59.912;30.300;2022-09-28T12:04:47;100798.31;;;12.53;69.55
35918;BME280;22011;59.912;30.300;2022-09-28T12:07:26;100797.94;;;12.56;69.96
35918;BME280;22011;59.912;30.300;2022-09-28T12:09:59;100789.88;;;12.64;69.22
35918;BME280;22011;59.912;30.300;2022-09-28T12:12:33;100785.84;;;12.68;69.41
35918;BME280;22011;59.912;30.300;2022-09-28T12:15:14;100779.34;;;12.85;68.52
35918;BME280;22011;59.912;30.300;2022-09-28T12:17:47;100779.53;;;12.84;68.10
35918;BME280;22011;59.912;30.300;2022-09-28T12:20:21;100780.53;;;12.83;67.68
35918;BME280;22011;59.912;30.300;2022-09-28T12:23:00;100779.81;;;12.89;69.02
35918;BME280;22011;59.912;30.300;2022-09-28T12:25:41;100767.59;;;12.71;68.15
35918;BME280;22011;59.912;30.300;2022-09-28T12:28:17;100768.25;;;12.73;70.71
35918;BME280;22011;59.912;30.300;2022-09-28T12:30:50;100765.16;;;12.62;68.63
35918;BME280;22011;59.912;30.300;2022-09-28T12:33:19;100766.94;;;12.69;69.50
35918;BME280;22011;59.912;30.300;2022-09-28T12:36:01;100773.47;;;12.90;69.25
35918;BME280;22011;59.912;30.300;2022-09-28T12:38:56;100768.13;;;12.90;69.03
35918;BME280;22011;59.912;30.300;2022-09-28T12:41:36;100768.72;;;12.77;69.26
35918;BME280;22011;59.912;30.300;2022-09-28T12:44:22;100764.22;;;12.77;68.67
35918;BME280;22011;59.912;30.300;2022-09-28T12:47:07;100756.06;;;12.71;68.69
35918;BME280;22011;59.912;30.300;2022-09-28T12:49:50;100748.88;;;12.71;68.44
35918;BME280;22011;59.912;30.300;2022-09-28T12:52:30;100749.34;;;12.75;68.47
35918;BME280;22011;59.912;30.300;2022-09-28T12:55:07;100741.59;;;13.03;67.36
35918;BME280;22011;59.912;30.300;2022-09-28T12:57:48;100741.16;;;12.76;67.66
35918;BME280;22011;59.912;30.300;2022-09-28T13:00:19;100745.19;;;12.72;67.45
35918;BME280;22011;59.912;30.300;2022-09-28T13:03:10;100736.41;;;12.87;67.71
35918;BME280;22011;59.912;30.300;2022-09-28T13:06:17;100732.28;;;12.99;67.61
35918;BME280;22011;59.912;30.300;2022-09-28T13:09:00;100735.81;;;12.54;69.19
35918;BME280;22011;59.912;30.300;2022-09-28T13:11:38;100726.81;;;12.32;70.87
35918;BME280;22011;59.912;30.300;2022-09-28T13:14:39;100732.16;;;12.32;69.98
35918;BME280;22011;59.912;30.300;2022-09-28T13:17:17;100735.94;;;12.15;70.22
35918;BME280;22011;59.912;30.300;2022-09-28T13:19:56;100743.28;;;12.13;71.61
35918;BME280;22011;59.912;30.300;2022-09-28T13:22:29;100737.97;;;12.13;71.74
35918;BME280;22011;59.912;30.300;2022-09-28T13:25:05;100739.13;;;12.10;71.53
35918;BME280;22011;59.912;30.300;2022-09-28T13:27:41;100737.38;;;12.25;70.37
35918;BME280;22011;59.912;30.300;2022-09-28T13:30:14;100734.88;;;12.24;70.39
35918;BME280;22011;59.912;30.300;2022-09-28T13:32:43;100724.66;;;12.50;68.70